Time;durP1;ratioP1;P1;durP2;ratioP2;P2;SDS_P1;SDS_P2;PMS_P1;PMS_P2;Temp;Humidity;BMP_temperature;BMP_pressure;BME280_temperature;BME280_humidity;BME280_pressure;Samples;Min_cycle;Max_cycle;Signal;HPM_P1;HPM_P2
2023/12/09 00:00:54;;;;;;;4.13;3.00;;;;;;;;;;5049977;27;20739;-92
2023/12/09 00:03:21;;;;;;;3.20;2.90;;;;;;;;;;5050375;28;20202;-92
2023/12/09 00:05:49;;;;;;;3.30;3.00;;;;;;;;;;5037571;27;20590;-91
2023/12/09 00:08:16;;;;;;;3.53;2.97;;;;;;;;;;5024451;28;20206;-93
2023/12/09 00:10:43;;;;;;;4.97;3.30;;;;;;;;;;5036873;28;20683;-91
2023/12/09 00:13:10;;;;;;;3.27;2.97;;;;;;;;;;5030925;28;20218;-92
2023/12/09 00:15:37;;;;;;;4.10;2.87;;;;;;;;;;5031088;28;20207;-92
2023/12/09 00:18:04;;;;;;;3.33;2.80;;;;;;;;;;5050686;28;20210;-92
2023/12/09 00:20:31;;;;;;;3.13;2.80;;;;;;;;;;5036193;28;20214;-92
2023/12/09 00:22:59;;;;;;;3.80;3.40;;;;;;;;;;5038615;28;20198;-92
2023/12/09 00:25:26;;;;;;;4.60;3.13;;;;;;;;;;5036958;28;20230;-91
2023/12/09 00:27:53;;;;;;;4.27;3.20;;;;;;;;;;5050657;27;20209;-91
2023/12/09 00:30:21;;;;;;;3.70;2.77;;;;;;;;;;5037481;28;20210;-91
2023/12/09 00:32:48;;;;;;;5.70;3.73;;;;;;;;;;5050148;28;20256;-91
2023/12/09 00:35:17;;;;;;;3.30;3.00;;;;;;;;;;5047616;28;20266;-91
2023/12/09 00:37:43;;;;;;;3.23;2.93;;;;;;;;;;5040587;28;20206;-92
2023/12/09 00:40:13;;;;;;;4.90;3.00;;;;;;;;;;5049498;28;20218;-91
2023/12/09 00:42:40;;;;;;;3.33;2.80;;;;;;;;;;5050138;28;20206;-92
2023/12/09 00:45:07;;;;;;;3.27;2.50;;;;;;;;;;5032729;28;20223;-92
2023/12/09 00:47:34;;;;;;;3.03;2.73;;;;;;;;;;5040845;28;20217;-92
2023/12/09 00:50:02;;;;;;;3.80;2.83;;;;;;;;;;5036691;28;20600;-91
2023/12/09 00:52:29;;;;;;;2.07;1.87;;;;;;;;;;5049884;28;20208;-91
2023/12/09 00:54:55;;;;;;;3.80;3.33;;;;;;;;;;5044656;28;20206;-91
2023/12/09 00:57:24;;;;;;;3.43;2.90;;;;;;;;;;5042381;28;20212;-90
2023/12/09 00:59:51;;;;;;;2.63;2.23;;;;;;;;;;5036188;28;20202;-92
2023/12/09 01:02:18;;;;;;;3.53;2.67;;;;;;;;;;5037177;28;20206;-91
2023/12/09 01:04:45;;;;;;;2.37;2.10;;;;;;;;;;5029576;28;20215;-91
2023/12/09 01:07:12;;;;;;;3.10;2.73;;;;;;;;;;5042749;28;20213;-90
2023/12/09 01:09:39;;;;;;;4.57;2.70;;;;;;;;;;5043147;28;20707;-90
2023/12/09 01:12:06;;;;;;;3.13;2.77;;;;;;;;;;5041309;28;20242;-90
2023/12/09 01:14:35;;;;;;;3.67;3.00;;;;;;;;;;5043760;28;20219;-90
2023/12/09 01:17:05;;;;;;;3.53;2.93;;;;;;;;;;5029971;28;20238;-89
2023/12/09 01:19:31;;;;;;;2.60;2.30;;;;;;;;;;5029689;28;20217;-89
2023/12/09 01:21:58;;;;;;;3.10;2.53;;;;;;;;;;5042652;28;20214;-90
2023/12/09 01:24:25;;;;;;;2.43;2.23;;;;;;;;;;5049484;28;20226;-89
2023/12/09 01:26:52;;;;;;;3.13;2.43;;;;;;;;;;5035789;28;20689;-91
2023/12/09 01:29:19;;;;;;;3.10;2.80;;;;;;;;;;5049263;28;20213;-90
2023/12/09 01:31:47;;;;;;;3.03;2.40;;;;;;;;;;5035748;28;20217;-89
2023/12/09 01:34:14;;;;;;;2.67;2.23;;;;;;;;;;5042356;28;20214;-90
2023/12/09 01:36:40;;;;;;;3.00;2.60;;;;;;;;;;5029756;28;20207;-89
2023/12/09 01:39:09;;;;;;;2.80;2.60;;;;;;;;;;5036952;28;20198;-89
2023/12/09 01:41:37;;;;;;;3.30;2.50;;;;;;;;;;5035801;28;20215;-90
2023/12/09 01:44:04;;;;;;;2.30;2.10;;;;;;;;;;5041158;28;20207;-89
2023/12/09 01:46:31;;;;;;;2.30;2.10;;;;;;;;;;5042797;28;20595;-89
2023/12/09 01:48:59;;;;;;;2.37;2.17;;;;;;;;;;5029319;28;20661;-88
2023/12/09 01:51:27;;;;;;;2.00;1.70;;;;;;;;;;5044315;28;20206;-89
2023/12/09 01:53:54;;;;;;;2.20;2.00;;;;;;;;;;5040392;28;20597;-88
2023/12/09 01:56:21;;;;;;;2.00;1.80;;;;;;;;;;5042466;28;20209;-89
2023/12/09 01:58:49;;;;;;;5.50;2.10;;;;;;;;;;5038584;28;20214;-89
2023/12/09 02:01:16;;;;;;;2.20;2.00;;;;;;;;;;5035815;28;20296;-89
2023/12/09 02:03:43;;;;;;;2.23;2.03;;;;;;;;;;5039177;28;20207;-88
2023/12/09 02:06:11;;;;;;;2.20;1.97;;;;;;;;;;5045631;28;20252;-89
2023/12/09 02:08:39;;;;;;;2.20;2.00;;;;;;;;;;5038789;28;20217;-88
2023/12/09 02:11:12;;;;;;;2.40;1.90;;;;;;;;;;5029601;28;20240;-88
2023/12/09 02:13:49;;;;;;;2.73;2.17;;;;;;;;;;5040052;28;20237;-88
2023/12/09 02:16:21;;;;;;;2.10;1.90;;;;;;;;;;5048380;28;20197;-88
2023/12/09 02:18:49;;;;;;;2.40;1.93;;;;;;;;;;5034675;28;20214;-88
2023/12/09 02:21:20;;;;;;;2.03;1.93;;;;;;;;;;5029148;28;20206;-88
2023/12/09 02:23:48;;;;;;;2.20;2.00;;;;;;;;;;5029674;28;20207;-88
2023/12/09 02:26:19;;;;;;;2.20;1.93;;;;;;;;;;5043809;28;20234;-87
2023/12/09 02:28:51;;;;;;;2.67;2.47;;;;;;;;;;5047290;28;20210;-88
2023/12/09 02:31:23;;;;;;;2.93;2.37;;;;;;;;;;5042732;28;20215;-88
2023/12/09 02:33:50;;;;;;;2.63;2.43;;;;;;;;;;5048870;28;20216;-88
2023/12/09 02:36:19;;;;;;;1.97;1.87;;;;;;;;;;5041685;28;20214;-89
2023/12/09 02:38:48;;;;;;;2.20;2.00;;;;;;;;;;5049319;28;20194;-87
2023/12/09 02:41:18;;;;;;;2.50;2.30;;;;;;;;;;5052286;28;20218;-87
2023/12/09 02:43:46;;;;;;;2.70;2.37;;;;;;;;;;5033469;28;20203;-87
2023/12/09 02:46:14;;;;;;;3.17;2.87;;;;;;;;;;5043985;28;20229;-88
2023/12/09 02:48:41;;;;;;;3.00;2.30;;;;;;;;;;5037810;28;20232;-87
2023/12/09 02:51:08;;;;;;;2.57;2.37;;;;;;;;;;5039624;28;20215;-86
2023/12/09 02:53:35;;;;;;;2.80;2.40;;;;;;;;;;5037224;28;20225;-87
2023/12/09 02:56:06;;;;;;;2.90;2.43;;;;;;;;;;5051658;28;20205;-87
2023/12/09 02:58:33;;;;;;;2.80;2.40;;;;;;;;;;5027154;28;20198;-90
2023/12/09 03:01:00;;;;;;;2.83;2.57;;;;;;;;;;5050788;28;20213;-87
2023/12/09 03:03:26;;;;;;;2.63;2.43;;;;;;;;;;5050894;28;20202;-86
2023/12/09 03:05:53;;;;;;;3.17;2.20;;;;;;;;;;5049741;28;20233;-87
2023/12/09 03:08:20;;;;;;;3.00;2.70;;;;;;;;;;5050376;28;20648;-87
2023/12/09 03:10:47;;;;;;;2.80;2.33;;;;;;;;;;5050226;28;20241;-87
2023/12/09 03:13:16;;;;;;;2.87;2.60;;;;;;;;;;5043476;28;20199;-87
2023/12/09 03:15:42;;;;;;;6.30;5.67;;;;;;;;;;5030844;28;20207;-86
2023/12/09 03:18:09;;;;;;;5.60;5.03;;;;;;;;;;5030830;28;20207;-87
2023/12/09 03:20:36;;;;;;;4.43;4.03;;;;;;;;;;5044650;28;20202;-86
2023/12/09 03:23:05;;;;;;;3.40;3.10;;;;;;;;;;5042817;28;20221;-87
2023/12/09 03:25:32;;;;;;;2.97;2.67;;;;;;;;;;5030553;28;20226;-87
2023/12/09 03:27:59;;;;;;;3.13;2.73;;;;;;;;;;5039295;28;20210;-89
2023/12/09 03:30:27;;;;;;;5.10;2.73;;;;;;;;;;5050092;28;20237;-87
2023/12/09 03:32:54;;;;;;;7.77;6.00;;;;;;;;;;5041832;28;20210;-87
2023/12/09 03:35:21;;;;;;;5.50;4.87;;;;;;;;;;5042961;28;20591;-87
2023/12/09 03:37:48;;;;;;;5.33;4.17;;;;;;;;;;5039274;28;20209;-88
2023/12/09 03:40:15;;;;;;;3.83;3.07;;;;;;;;;;5050443;28;20210;-87
2023/12/09 03:42:41;;;;;;;3.70;2.60;;;;;;;;;;5050398;28;20202;-86
2023/12/09 03:45:09;;;;;;;38.30;23.20;;;;;;;;;;5049392;28;20225;-87
2023/12/09 03:47:37;;;;;;;16.80;11.27;;;;;;;;;;5050232;28;20214;-87
2023/12/09 03:50:04;;;;;;;16.93;11.93;;;;;;;;;;5049998;28;20202;-87
2023/12/09 03:52:31;;;;;;;11.90;9.10;;;;;;;;;;5049638;28;20198;-86
2023/12/09 03:54:58;;;;;;;8.33;5.57;;;;;;;;;;5049691;28;20201;-88
2023/12/09 03:57:26;;;;;;;4.67;3.87;;;;;;;;;;5050397;27;20237;-84
2023/12/09 03:59:53;;;;;;;5.27;3.50;;;;;;;;;;5048039;28;20209;-84
2023/12/09 04:02:20;;;;;;;6.57;5.97;;;;;;;;;;5048972;28;20206;-84
2023/12/09 04:04:48;;;;;;;4.33;3.93;;;;;;;;;;5046048;28;20203;-89
2023/12/09 04:07:15;;;;;;;5.07;4.43;;;;;;;;;;5041617;28;20239;-89
2023/12/09 04:09:43;;;;;;;9.13;8.03;;;;;;;;;;5037573;28;20217;-89
2023/12/09 04:12:10;;;;;;;5.00;4.50;;;;;;;;;;5038080;28;20234;-89
2023/12/09 04:14:37;;;;;;;4.40;3.03;;;;;;;;;;5036135;28;20209;-89
2023/12/09 04:17:04;;;;;;;4.23;3.83;;;;;;;;;;5050580;28;20633;-89
2023/12/09 04:19:31;;;;;;;2.83;2.60;;;;;;;;;;5043808;28;20211;-88
2023/12/09 04:21:59;;;;;;;3.50;3.20;;;;;;;;;;5043366;28;20201;-89
2023/12/09 04:24:26;;;;;;;3.57;3.27;;;;;;;;;;5023207;28;20194;-89
2023/12/09 04:26:53;;;;;;;6.47;5.00;;;;;;;;;;5036738;28;20230;-88
2023/12/09 04:29:20;;;;;;;5.10;4.63;;;;;;;;;;5024188;28;20206;-88
2023/12/09 04:31:46;;;;;;;4.00;3.43;;;;;;;;;;5050106;27;20220;-87
2023/12/09 04:34:14;;;;;;;2.80;2.50;;;;;;;;;;5037232;28;20259;-89
2023/12/09 04:36:40;;;;;;;5.10;4.60;;;;;;;;;;5049916;28;20265;-89
2023/12/09 04:39:10;;;;;;;4.33;3.93;;;;;;;;;;5049860;28;20210;-89
2023/12/09 04:41:36;;;;;;;3.10;2.73;;;;;;;;;;5035102;28;20203;-91
2023/12/09 04:44:06;;;;;;;4.27;3.40;;;;;;;;;;5035694;28;20222;-93
2023/12/09 04:46:33;;;;;;;4.87;3.43;;;;;;;;;;5043251;28;20229;-91
2023/12/09 04:49:00;;;;;;;3.47;3.17;;;;;;;;;;5037673;28;20214;-89
2023/12/09 04:51:27;;;;;;;6.13;3.63;;;;;;;;;;5049985;28;20221;-90
2023/12/09 04:53:54;;;;;;;4.83;3.57;;;;;;;;;;5042624;28;20210;-90
2023/12/09 04:56:22;;;;;;;2.63;2.43;;;;;;;;;;5044440;27;20210;-88
2023/12/09 04:58:49;;;;;;;39.83;27.30;;;;;;;;;;5042177;28;20214;-89
2023/12/09 05:01:18;;;;;;;79.63;41.93;;;;;;;;;;5045144;28;20202;-89
2023/12/09 05:03:47;;;;;;;76.53;43.70;;;;;;;;;;5040929;28;20226;-89
2023/12/09 05:06:14;;;;;;;58.10;39.97;;;;;;;;;;5031882;28;20238;-89
2023/12/09 05:08:42;;;;;;;26.47;19.87;;;;;;;;;;5049465;28;20206;-90
2023/12/09 05:11:09;;;;;;;6.30;4.60;;;;;;;;;;5036151;28;20692;-90
2023/12/09 05:13:37;;;;;;;3.50;3.20;;;;;;;;;;5049015;28;20759;-91
2023/12/09 05:16:05;;;;;;;8.47;7.10;;;;;;;;;;5036514;28;20198;-90
2023/12/09 05:18:33;;;;;;;14.00;10.43;;;;;;;;;;5049474;28;20213;-90
2023/12/09 05:21:00;;;;;;;43.03;28.37;;;;;;;;;;5036317;28;20210;-90
2023/12/09 05:23:27;;;;;;;12.73;8.70;;;;;;;;;;5049748;28;20202;-89
2023/12/09 05:25:55;;;;;;;74.30;40.63;;;;;;;;;;5048665;28;20236;-91
2023/12/09 05:28:22;;;;;;;6.23;5.53;;;;;;;;;;5049513;28;20672;-89
2023/12/09 05:30:50;;;;;;;5.43;3.80;;;;;;;;;;5049189;28;20222;-89
2023/12/09 05:33:17;;;;;;;12.13;7.77;;;;;;;;;;5049466;28;20220;-89
2023/12/09 05:35:44;;;;;;;51.17;27.40;;;;;;;;;;5036081;28;20205;-89
2023/12/09 05:38:10;;;;;;;62.90;33.70;;;;;;;;;;5048887;28;20256;-89
2023/12/09 05:40:37;;;;;;;18.73;12.37;;;;;;;;;;5029372;28;20245;-90
2023/12/09 05:43:04;;;;;;;11.93;10.90;;;;;;;;;;5042341;28;20645;-90
2023/12/09 05:45:31;;;;;;;79.40;40.77;;;;;;;;;;5029434;28;20618;-91
2023/12/09 05:47:59;;;;;;;8.50;6.53;;;;;;;;;;5029449;28;20221;-91
2023/12/09 05:50:26;;;;;;;43.50;24.27;;;;;;;;;;5036822;28;20297;-89
2023/12/09 05:52:53;;;;;;;30.27;17.17;;;;;;;;;;5035853;28;20203;-91
2023/12/09 05:55:20;;;;;;;43.93;30.17;;;;;;;;;;5049289;28;20217;-88
2023/12/09 05:57:47;;;;;;;124.87;64.30;;;;;;;;;;5049396;28;20213;-90
2023/12/09 06:00:14;;;;;;;84.30;37.90;;;;;;;;;;5051774;28;20201;-90
2023/12/09 06:02:41;;;;;;;241.33;80.47;;;;;;;;;;5037179;28;20601;-88
2023/12/09 06:05:10;;;;;;;72.80;34.07;;;;;;;;;;5041239;28;20236;-88
2023/12/09 06:07:37;;;;;;;305.30;99.43;;;;;;;;;;5042667;28;20222;-88
2023/12/09 06:10:05;;;;;;;50.43;22.87;;;;;;;;;;5039939;28;20195;-86
2023/12/09 06:12:33;;;;;;;43.67;23.40;;;;;;;;;;5032018;28;20258;-86
2023/12/09 06:15:00;;;;;;;17.67;11.67;;;;;;;;;;5045200;28;20211;-86
2023/12/09 06:17:27;;;;;;;16.80;9.40;;;;;;;;;;5043320;28;20206;-86
2023/12/09 06:19:54;;;;;;;31.57;15.27;;;;;;;;;;5038787;28;20629;-86
2023/12/09 06:22:22;;;;;;;7.47;4.83;;;;;;;;;;5040795;27;20245;-89
2023/12/09 06:24:49;;;;;;;19.17;11.87;;;;;;;;;;5050243;28;20210;-89
2023/12/09 06:27:16;;;;;;;11.67;7.83;;;;;;;;;;5052285;28;20226;-88
2023/12/09 06:29:45;;;;;;;7.60;5.50;;;;;;;;;;5038732;28;20205;-86
2023/12/09 06:32:12;;;;;;;5.37;4.43;;;;;;;;;;5040139;28;20207;-86
2023/12/09 06:34:39;;;;;;;10.63;7.60;;;;;;;;;;5031397;28;20711;-86
2023/12/09 06:37:05;;;;;;;10.63;8.80;;;;;;;;;;5044642;28;20206;-84
2023/12/09 06:39:34;;;;;;;8.40;6.37;;;;;;;;;;5044376;27;20203;-84
2023/12/09 06:42:01;;;;;;;6.77;6.07;;;;;;;;;;5044184;28;20215;-85
2023/12/09 06:44:28;;;;;;;13.03;11.57;;;;;;;;;;5030941;28;20671;-84
2023/12/09 06:46:54;;;;;;;15.47;13.87;;;;;;;;;;5044429;28;20242;-83
2023/12/09 06:49:21;;;;;;;8.77;7.27;;;;;;;;;;5043949;28;20199;-82
2023/12/09 06:51:49;;;;;;;7.67;6.07;;;;;;;;;;5030633;28;20211;-82
2023/12/09 06:54:19;;;;;;;11.37;8.77;;;;;;;;;;5043410;28;20217;-82
2023/12/09 06:56:47;;;;;;;16.17;12.00;;;;;;;;;;5045643;28;20221;-82
2023/12/09 06:59:15;;;;;;;9.27;8.27;;;;;;;;;;5046855;28;20221;-83
2023/12/09 07:01:43;;;;;;;18.50;12.87;;;;;;;;;;5030650;28;20271;-82
2023/12/09 07:04:12;;;;;;;10.37;7.70;;;;;;;;;;5043602;28;20215;-83
2023/12/09 07:06:39;;;;;;;8.03;4.93;;;;;;;;;;5030351;28;20671;-82
2023/12/09 07:09:06;;;;;;;7.13;5.03;;;;;;;;;;5047994;28;20569;-83
2023/12/09 07:11:33;;;;;;;4.90;4.40;;;;;;;;;;5036395;28;20240;-82
2023/12/09 07:14:05;;;;;;;5.83;5.00;;;;;;;;;;5036680;28;20293;-83
2023/12/09 07:16:31;;;;;;;4.50;3.77;;;;;;;;;;5050292;28;20656;-83
2023/12/09 07:18:59;;;;;;;4.90;4.07;;;;;;;;;;5047946;28;20206;-82
2023/12/09 07:21:27;;;;;;;17.17;12.17;;;;;;;;;;5030277;28;20260;-83
2023/12/09 07:23:55;;;;;;;12.30;8.57;;;;;;;;;;5032703;28;20214;-83
2023/12/09 07:26:22;;;;;;;9.57;7.00;;;;;;;;;;5042237;28;20233;-82
2023/12/09 07:28:49;;;;;;;31.43;22.27;;;;;;;;;;5050018;28;20206;-82
2023/12/09 07:31:17;;;;;;;16.47;11.73;;;;;;;;;;5048824;28;20715;-81
2023/12/09 07:33:44;;;;;;;12.13;7.63;;;;;;;;;;5049927;28;20210;-82
2023/12/09 07:36:12;;;;;;;42.07;29.13;;;;;;;;;;5033150;28;20681;-82
2023/12/09 07:38:39;;;;;;;44.20;32.63;;;;;;;;;;5029627;28;20206;-82
2023/12/09 07:41:05;;;;;;;11.67;9.77;;;;;;;;;;5046366;28;20202;-80
2023/12/09 07:43:32;;;;;;;7.37;4.20;;;;;;;;;;5039324;28;20202;-80
2023/12/09 07:45:59;;;;;;;5.00;3.80;;;;;;;;;;5031116;28;20203;-87
2023/12/09 07:48:27;;;;;;;5.00;3.37;;;;;;;;;;5042190;28;20207;-86
2023/12/09 07:50:54;;;;;;;4.50;3.93;;;;;;;;;;5031925;28;20229;-89
2023/12/09 07:53:21;;;;;;;4.47;3.40;;;;;;;;;;5050768;28;20210;-86
2023/12/09 07:55:48;;;;;;;4.20;3.80;;;;;;;;;;5049090;27;20210;-83
2023/12/09 07:58:15;;;;;;;6.13;4.17;;;;;;;;;;5040486;28;20597;-83
2023/12/09 08:00:42;;;;;;;4.33;3.70;;;;;;;;;;5031019;28;20217;-83
2023/12/09 08:03:11;;;;;;;5.83;4.40;;;;;;;;;;5040820;28;20286;-84
2023/12/09 08:05:40;;;;;;;10.90;6.20;;;;;;;;;;5042695;28;20693;-83
2023/12/09 08:08:07;;;;;;;5.73;4.73;;;;;;;;;;5039266;28;20225;-84
2023/12/09 08:10:33;;;;;;;5.13;4.47;;;;;;;;;;5037030;28;20211;-83
2023/12/09 08:13:03;;;;;;;5.37;4.60;;;;;;;;;;5048027;28;20206;-84
2023/12/09 08:15:29;;;;;;;4.70;4.00;;;;;;;;;;5036556;28;20203;-84
2023/12/09 08:17:57;;;;;;;34.67;17.90;;;;;;;;;;5023484;28;20207;-85
2023/12/09 08:20:23;;;;;;;12.33;8.20;;;;;;;;;;5009737;28;20207;-85
2023/12/09 08:22:52;;;;;;;5.27;4.47;;;;;;;;;;5035070;28;20741;-85
2023/12/09 08:25:19;;;;;;;4.20;3.80;;;;;;;;;;5049456;28;20221;-88
2023/12/09 08:27:45;;;;;;;4.47;4.07;;;;;;;;;;5034706;28;20236;-86
2023/12/09 08:30:13;;;;;;;9.83;6.50;;;;;;;;;;5029502;28;20222;-87
2023/12/09 08:32:41;;;;;;;4.07;3.53;;;;;;;;;;5042730;28;20203;-88
2023/12/09 08:35:09;;;;;;;3.63;3.10;;;;;;;;;;5043320;28;20215;-88
2023/12/09 08:37:36;;;;;;;2.80;2.57;;;;;;;;;;5038358;28;20672;-90
2023/12/09 08:40:11;;;;;;;4.23;3.40;;;;;;;;;;5035883;28;20245;-89
2023/12/09 08:42:39;;;;;;;3.63;3.33;;;;;;;;;;5039585;28;20248;-90
2023/12/09 08:45:08;;;;;;;7.13;6.40;;;;;;;;;;5047049;28;20210;-91
2023/12/09 08:47:35;;;;;;;5.93;4.20;;;;;;;;;;5029829;28;20241;-91
2023/12/09 08:50:04;;;;;;;3.80;3.17;;;;;;;;;;5043090;28;20205;-90
2023/12/09 08:52:31;;;;;;;3.53;3.23;;;;;;;;;;5030359;28;20297;-91
2023/12/09 08:54:58;;;;;;;3.93;3.57;;;;;;;;;;5043187;28;20245;-92
2023/12/09 08:57:27;;;;;;;3.10;2.80;;;;;;;;;;5041010;28;20210;-91
2023/12/09 08:59:54;;;;;;;2.40;2.20;;;;;;;;;;5044511;28;20215;-90
2023/12/09 09:02:22;;;;;;;3.23;3.03;;;;;;;;;;5029603;28;20256;-92
2023/12/09 09:04:49;;;;;;;4.17;3.77;;;;;;;;;;5048744;28;20210;-91
2023/12/09 09:07:19;;;;;;;3.27;2.97;;;;;;;;;;5049430;28;20236;-92
2023/12/09 09:09:45;;;;;;;2.87;2.57;;;;;;;;;;5017869;28;20199;-91
2023/12/09 09:12:12;;;;;;;2.57;2.37;;;;;;;;;;5030517;28;20226;-91
2023/12/09 09:14:41;;;;;;;2.93;2.63;;;;;;;;;;5043600;28;20206;-91
2023/12/09 09:17:07;;;;;;;2.87;2.60;;;;;;;;;;5043093;28;20220;-91
2023/12/09 09:19:35;;;;;;;2.30;2.03;;;;;;;;;;5049347;28;20210;-91
2023/12/09 09:22:03;;;;;;;12.63;8.27;;;;;;;;;;5049147;28;20711;-91
2023/12/09 09:24:30;;;;;;;15.70;10.27;;;;;;;;;;5036913;28;20212;-91
2023/12/09 09:26:57;;;;;;;7.97;7.17;;;;;;;;;;5048645;28;20294;-90
2023/12/09 09:29:24;;;;;;;5.97;5.30;;;;;;;;;;5036978;28;20208;-92
2023/12/09 09:31:53;;;;;;;4.37;3.97;;;;;;;;;;5035268;28;20203;-90
2023/12/09 09:34:19;;;;;;;5.13;4.63;;;;;;;;;;5036466;28;20314;-91
2023/12/09 09:36:46;;;;;;;2.67;2.37;;;;;;;;;;5048252;28;20201;-90
2023/12/09 09:39:13;;;;;;;3.30;2.50;;;;;;;;;;5029516;28;20220;-90
2023/12/09 09:41:51;;;;;;;3.00;2.50;;;;;;;;;;5044767;28;20214;-90
2023/12/09 09:44:20;;;;;;;3.00;2.70;;;;;;;;;;5049444;28;20633;-90
2023/12/09 09:46:47;;;;;;;2.80;2.50;;;;;;;;;;5031777;28;20983;-90
2023/12/09 09:49:18;;;;;;;6.23;3.47;;;;;;;;;;5029588;28;20267;-89
2023/12/09 09:51:45;;;;;;;4.33;3.70;;;;;;;;;;5029484;28;20203;-90
2023/12/09 09:54:22;;;;;;;2.60;2.40;;;;;;;;;;5041184;28;20297;-90
2023/12/09 09:56:49;;;;;;;3.17;2.90;;;;;;;;;;5017813;28;20206;-89
2023/12/09 09:59:19;;;;;;;2.23;1.77;;;;;;;;;;5042455;28;20214;-90
2023/12/09 10:01:46;;;;;;;2.53;2.33;;;;;;;;;;5029080;28;20302;-90
2023/12/09 10:04:13;;;;;;;3.50;2.63;;;;;;;;;;5029202;27;20241;-90
2023/12/09 10:06:41;;;;;;;3.40;3.10;;;;;;;;;;5040983;28;20206;-90
2023/12/09 10:09:08;;;;;;;4.80;2.60;;;;;;;;;;5049239;28;20206;-90
2023/12/09 10:11:35;;;;;;;3.43;3.13;;;;;;;;;;5049020;28;20229;-90
2023/12/09 10:14:04;;;;;;;2.43;2.23;;;;;;;;;;5046089;27;20214;-89
2023/12/09 10:16:33;;;;;;;2.90;2.70;;;;;;;;;;5038371;28;20637;-86
2023/12/09 10:19:00;;;;;;;2.93;2.17;;;;;;;;;;5041249;28;20211;-90
2023/12/09 10:21:26;;;;;;;3.10;2.80;;;;;;;;;;5030692;28;20205;-90
2023/12/09 10:23:56;;;;;;;3.40;2.33;;;;;;;;;;5048812;28;20210;-89
2023/12/09 10:26:23;;;;;;;2.73;2.50;;;;;;;;;;5037952;28;20207;-89
2023/12/09 10:28:50;;;;;;;3.43;2.50;;;;;;;;;;5046095;28;20242;-90
2023/12/09 10:31:18;;;;;;;8.00;4.47;;;;;;;;;;5037196;28;20207;-90
2023/12/09 10:33:45;;;;;;;4.60;3.13;;;;;;;;;;5046722;28;20226;-89
2023/12/09 10:36:12;;;;;;;5.47;3.40;;;;;;;;;;5036823;28;20214;-89
2023/12/09 10:38:42;;;;;;;3.70;3.40;;;;;;;;;;5046675;28;20214;-90
2023/12/09 10:41:12;;;;;;;2.63;2.43;;;;;;;;;;5048241;28;20673;-90
2023/12/09 10:43:39;;;;;;;3.30;2.87;;;;;;;;;;5042394;28;20211;-90
2023/12/09 10:46:07;;;;;;;3.00;2.70;;;;;;;;;;5044123;28;20210;-90
2023/12/09 10:48:34;;;;;;;4.07;3.67;;;;;;;;;;5045150;28;20234;-89
2023/12/09 10:51:01;;;;;;;4.33;2.93;;;;;;;;;;5045399;28;20710;-91
2023/12/09 10:53:28;;;;;;;4.20;3.40;;;;;;;;;;5045088;28;20745;-89
2023/12/09 10:55:56;;;;;;;3.10;2.80;;;;;;;;;;5045491;28;20707;-89
2023/12/09 10:58:25;;;;;;;2.80;2.60;;;;;;;;;;5043897;28;20271;-89
2023/12/09 11:00:52;;;;;;;4.27;3.50;;;;;;;;;;5030111;28;20206;-89
2023/12/09 11:03:20;;;;;;;4.27;2.93;;;;;;;;;;5028848;28;20248;-90
2023/12/09 11:05:51;;;;;;;6.50;5.80;;;;;;;;;;5049386;28;20296;-89
2023/12/09 11:08:18;;;;;;;6.63;3.17;;;;;;;;;;5041331;28;20237;-89
2023/12/09 11:10:45;;;;;;;3.83;3.43;;;;;;;;;;5047907;28;20234;-89
2023/12/09 11:13:12;;;;;;;2.33;2.13;;;;;;;;;;5039104;28;20205;-87
2023/12/09 11:15:41;;;;;;;2.77;2.57;;;;;;;;;;5051381;28;20213;-88
2023/12/09 11:18:09;;;;;;;3.07;2.50;;;;;;;;;;5051534;28;20216;-89
2023/12/09 11:20:39;;;;;;;4.03;3.63;;;;;;;;;;5049821;28;20203;-88
2023/12/09 11:23:10;;;;;;;3.50;3.30;;;;;;;;;;5022656;28;20211;-89
2023/12/09 11:25:39;;;;;;;3.37;2.60;;;;;;;;;;5030698;28;20757;-90
2023/12/09 11:28:06;;;;;;;9.27;7.83;;;;;;;;;;5050979;28;20226;-88
2023/12/09 11:30:34;;;;;;;6.43;5.20;;;;;;;;;;5037420;28;20206;-88
2023/12/09 11:33:04;;;;;;;5.93;3.50;;;;;;;;;;5051269;28;20205;-88
2023/12/09 11:35:31;;;;;;;5.30;4.10;;;;;;;;;;5037387;28;20202;-88
2023/12/09 11:38:01;;;;;;;4.23;3.83;;;;;;;;;;5051159;28;20206;-87
2023/12/09 11:40:29;;;;;;;3.60;3.00;;;;;;;;;;5037990;28;20217;-89
2023/12/09 11:42:57;;;;;;;3.83;3.13;;;;;;;;;;5038969;28;20221;-88
2023/12/09 11:45:24;;;;;;;3.57;3.27;;;;;;;;;;5021745;28;20218;-89
2023/12/09 11:47:51;;;;;;;2.80;2.47;;;;;;;;;;5044388;28;20233;-90
2023/12/09 11:50:19;;;;;;;3.27;2.97;;;;;;;;;;5041026;28;20218;-90
2023/12/09 11:52:47;;;;;;;3.20;2.90;;;;;;;;;;5033596;28;20263;-89
2023/12/09 11:55:17;;;;;;;2.80;2.47;;;;;;;;;;5041794;28;20212;-88
2023/12/09 11:57:44;;;;;;;3.17;2.20;;;;;;;;;;5044687;28;20199;-88
2023/12/09 12:00:11;;;;;;;3.93;3.47;;;;;;;;;;5030832;28;20215;-89
2023/12/09 12:02:39;;;;;;;6.17;4.77;;;;;;;;;;5043795;28;20254;-88
2023/12/09 12:05:08;;;;;;;6.77;5.50;;;;;;;;;;5030559;28;20222;-88
2023/12/09 12:07:37;;;;;;;3.40;3.03;;;;;;;;;;5043405;28;20294;-88
2023/12/09 12:10:04;;;;;;;3.80;3.00;;;;;;;;;;5038667;28;20226;-88
2023/12/09 12:12:31;;;;;;;3.00;2.70;;;;;;;;;;5049207;28;20644;-88
2023/12/09 12:15:01;;;;;;;3.77;3.33;;;;;;;;;;5039375;28;20224;-88
2023/12/09 12:17:28;;;;;;;3.37;3.00;;;;;;;;;;5037025;28;20314;-88
2023/12/09 12:19:55;;;;;;;2.67;2.47;;;;;;;;;;5050259;28;20676;-90
2023/12/09 12:22:22;;;;;;;4.17;2.87;;;;;;;;;;5034086;28;20206;-87
2023/12/09 12:24:52;;;;;;;4.37;3.20;;;;;;;;;;5039878;28;20202;-89
2023/12/09 12:27:19;;;;;;;3.33;3.03;;;;;;;;;;5036519;27;20210;-89
2023/12/09 12:29:47;;;;;;;3.00;2.57;;;;;;;;;;5039735;28;20631;-88
2023/12/09 12:32:14;;;;;;;3.40;3.10;;;;;;;;;;5033451;28;20740;-89
2023/12/09 12:34:44;;;;;;;5.20;3.90;;;;;;;;;;5032765;28;20214;-88
2023/12/09 12:37:11;;;;;;;2.50;2.30;;;;;;;;;;5037341;28;20214;-89
2023/12/09 12:39:38;;;;;;;5.03;4.63;;;;;;;;;;5043512;28;20207;-89
2023/12/09 12:42:08;;;;;;;3.67;3.10;;;;;;;;;;5042093;28;20289;-89
2023/12/09 12:44:36;;;;;;;4.63;4.23;;;;;;;;;;5030687;28;20206;-89
2023/12/09 12:47:04;;;;;;;2.90;2.70;;;;;;;;;;5030927;28;20714;-88
2023/12/09 12:49:37;;;;;;;3.07;2.73;;;;;;;;;;5023628;28;20230;-89
2023/12/09 12:52:04;;;;;;;4.93;3.40;;;;;;;;;;5048663;28;20586;-88
2023/12/09 12:54:31;;;;;;;3.57;2.90;;;;;;;;;;5037954;28;20199;-87
2023/12/09 12:56:59;;;;;;;17.13;11.37;;;;;;;;;;5033401;28;20206;-88
2023/12/09 12:59:27;;;;;;;3.40;2.97;;;;;;;;;;5018674;28;20263;-89
2023/12/09 13:01:55;;;;;;;3.37;3.00;;;;;;;;;;5031955;28;20700;-88
2023/12/09 13:04:22;;;;;;;4.87;3.43;;;;;;;;;;5040507;28;20306;-88
2023/12/09 13:06:49;;;;;;;5.60;3.70;;;;;;;;;;5045484;28;20218;-88
2023/12/09 13:09:18;;;;;;;9.23;5.93;;;;;;;;;;5046683;28;20699;-89
2023/12/09 13:11:45;;;;;;;4.30;4.00;;;;;;;;;;5038561;28;20693;-89
2023/12/09 13:14:12;;;;;;;3.67;3.30;;;;;;;;;;5035988;28;20595;-88
2023/12/09 13:16:40;;;;;;;4.73;3.53;;;;;;;;;;5049530;28;20281;-88
2023/12/09 13:19:07;;;;;;;13.17;7.40;;;;;;;;;;5033857;28;20211;-89
2023/12/09 13:21:35;;;;;;;4.63;4.00;;;;;;;;;;5038955;28;20660;-86
2023/12/09 13:24:03;;;;;;;4.77;3.83;;;;;;;;;;5033183;28;20642;-88
2023/12/09 13:26:30;;;;;;;4.40;3.20;;;;;;;;;;5039370;28;20267;-88
2023/12/09 13:28:57;;;;;;;3.23;2.87;;;;;;;;;;5047771;28;20520;-82
2023/12/09 13:31:24;;;;;;;4.57;3.67;;;;;;;;;;5048642;28;20217;-88
2023/12/09 13:33:52;;;;;;;5.50;3.57;;;;;;;;;;5032271;28;20721;-90
2023/12/09 13:36:19;;;;;;;9.97;8.03;;;;;;;;;;5039638;28;20289;-87
2023/12/09 13:38:46;;;;;;;4.13;3.70;;;;;;;;;;5036003;28;20258;-88
2023/12/09 13:41:13;;;;;;;3.77;3.37;;;;;;;;;;5038163;28;20209;-88
2023/12/09 13:43:40;;;;;;;3.90;3.57;;;;;;;;;;5029318;28;20232;-88
2023/12/09 13:46:07;;;;;;;5.17;4.53;;;;;;;;;;5028858;28;20213;-87
2023/12/09 13:48:34;;;;;;;3.93;3.50;;;;;;;;;;5034136;28;20225;-87
2023/12/09 13:51:08;;;;;;;4.80;3.73;;;;;;;;;;5049015;28;20206;-88
2023/12/09 13:53:35;;;;;;;3.70;3.40;;;;;;;;;;5041546;28;20306;-87
2023/12/09 13:56:03;;;;;;;4.17;3.20;;;;;;;;;;5042330;28;20246;-87
2023/12/09 13:58:30;;;;;;;4.30;3.77;;;;;;;;;;5023090;28;20202;-87
2023/12/09 14:00:58;;;;;;;4.30;3.80;;;;;;;;;;5048256;28;20206;-89
2023/12/09 14:03:25;;;;;;;3.97;3.40;;;;;;;;;;5029119;28;20202;-88
2023/12/09 14:05:52;;;;;;;4.50;3.77;;;;;;;;;;5042004;28;20220;-88
2023/12/09 14:08:20;;;;;;;7.27;4.83;;;;;;;;;;5036915;28;20230;-87
2023/12/09 14:10:47;;;;;;;9.67;5.37;;;;;;;;;;5048277;28;20240;-87
2023/12/09 14:13:14;;;;;;;5.77;5.13;;;;;;;;;;5048682;28;20217;-87
2023/12/09 14:15:42;;;;;;;5.60;4.87;;;;;;;;;;5034671;28;20572;-87
2023/12/09 14:18:09;;;;;;;7.20;6.03;;;;;;;;;;5036165;28;20691;-87
2023/12/09 14:20:36;;;;;;;6.67;4.70;;;;;;;;;;5036510;28;20664;-86
2023/12/09 14:23:03;;;;;;;6.93;4.57;;;;;;;;;;5044058;28;20294;-87
2023/12/09 14:25:31;;;;;;;7.30;4.27;;;;;;;;;;5031712;28;20293;-87
2023/12/09 14:27:58;;;;;;;5.30;4.80;;;;;;;;;;5040543;28;20205;-87
2023/12/09 14:30:26;;;;;;;6.57;5.83;;;;;;;;;;5049317;28;20228;-88
2023/12/09 14:32:53;;;;;;;6.00;4.97;;;;;;;;;;5040474;28;20640;-88
2023/12/09 14:35:20;;;;;;;7.07;5.67;;;;;;;;;;5038747;28;20214;-88
2023/12/09 14:37:50;;;;;;;8.37;6.53;;;;;;;;;;5051742;28;20213;-87
2023/12/09 14:40:17;;;;;;;7.77;5.63;;;;;;;;;;5048528;28;20203;-87